Fripp Island, South Carolina
Current Conditions -  °F | °C
As of 12:55 AM on Sunday 23 Nov 2014 (Local Time) from KARW Reporting Station
Overcast Overcast  
Wind Chill: 55°   Ceiling: 7500
Heat Index: 55°   Visibility: 7mi
Dew Point: 55°   Wind: 6mph
Humidity: 100%   Direction: 30°NNE
Pressure: 30.22"   Gusts: NA
Location:  32.3871°N, 80.5485°W
Report Text: KARW 230555Z AUTO 03005KT 7SM OVC075 13/13 A3022 RMK AO2
Loading
Personal Weather Stations






























Interactive Weather Map New forecast layout! Learn more

10-Day Weather Forecast

Advertisements
Track Severe Weather on mobile